.
WxDataArchive / Data Records for 2007-06-08
2007-06-07 June 2007 2007-06-09

Data Records for Friday, 08 June 2007

Time	Temp	Chill	HIndex	Humid	Dewpt	 Wind 	HiWind	WindDir	Rain 	Barom 
-----	----	-----	------	-----	-----	------	------	-------	-----	----- 
00:00	80.7	80.7	81.8	53	62.0	3	9	270	0.00	29.638 
00:05	80.9	80.9	82.0	53	62.1	3	12	270	0.00	29.635 
00:10	80.7	80.7	81.8	53	62.0	3	13	270	0.00	29.640 
00:15	80.7	80.7	81.9	54	62.5	3	11	270	0.00	29.641 
00:20	80.7	80.7	81.9	54	62.5	3	11	270	0.00	29.641 
00:25	80.7	80.7	81.9	54	62.5	3	10	270	0.00	29.639 
00:30	80.7	80.7	81.9	54	62.5	3	11	248	0.00	29.637 
00:35	80.7	80.7	81.9	54	62.5	3	7	248	0.00	29.638 
00:40	80.7	80.7	81.9	54	62.5	3	11	248	0.00	29.637 
00:45	80.7	80.7	81.9	54	62.5	3	7	270	0.00	29.631 
00:50	80.5	80.5	81.8	55	62.8	3	9	270	0.00	29.637 
00:55	80.7	80.7	82.0	55	63.0	3	6	270	0.00	29.638 
01:00	80.7	80.7	82.0	55	63.0	3	10	270	0.00	29.636 
01:05	80.5	80.5	81.9	56	63.3	3	11	270	0.00	29.637 
01:10	80.5	80.5	81.9	56	63.3	3	9	270	0.00	29.638 
01:15	80.5	80.5	81.9	56	63.3	2	6	248	0.00	29.639 
01:20	80.5	80.5	81.9	56	63.3	3	10	270	0.00	29.639 
01:25	80.5	80.5	81.9	56	63.3	4	11	270	0.00	29.639 
01:30	80.7	80.7	82.2	56	63.5	3	6	270	0.00	29.638 
01:35	80.7	80.7	82.2	56	63.5	3	9	248	0.00	29.636 
01:40	80.5	80.5	82.1	57	63.8	2	8	248	0.00	29.635 
01:45	80.3	80.3	81.8	57	63.7	3	9	270	0.00	29.633 
01:50	80.1	80.1	81.7	58	64.0	2	6	270	0.00	29.636 
01:55	80.1	80.1	81.7	58	64.0	3	11	270	0.00	29.634 
02:00	79.9	79.9	81.5	58	63.8	2	4	248	0.00	29.630 
02:05	79.9	79.9	81.5	58	63.8	3	7	270	0.00	29.630 
02:10	79.8	79.8	81.4	58	63.7	2	9	270	0.00	29.627 
02:15	79.8	79.8	81.4	58	63.7	3	9	270	0.00	29.631 
02:20	79.8	79.8	81.5	59	64.2	2	9	270	0.00	29.632 
02:25	79.6	79.6	81.3	59	64.0	3	9	270	0.00	29.636 
02:30	79.4	79.4	81.1	60	64.3	2	4	270	0.00	29.638 
02:35	79.4	79.4	81.1	60	64.3	2	6	248	0.00	29.639 
02:40	79.4	79.4	81.1	60	64.3	2	6	270	0.00	29.642 
02:45	79.6	79.6	81.3	60	64.5	2	6	248	0.00	29.643 
02:50	79.6	79.6	81.3	60	64.5	2	7	270	0.00	29.644 
02:55	79.6	79.6	81.3	60	64.5	2	6	270	0.00	29.642 
03:00	79.6	79.6	81.3	60	64.5	3	7	270	0.00	29.645 
03:05	79.6	79.6	81.3	60	64.5	2	7	248	0.00	29.644 
03:10	79.4	79.4	81.1	60	64.3	2	6	248	0.00	29.643 
03:15	79.4	79.4	81.2	61	64.8	1	5	270	0.00	29.640 
03:20	79.2	79.2	81.0	61	64.6	2	7	248	0.00	29.639 
03:25	79.0	79.0	80.8	62	64.8	2	6	270	0.00	29.639 
03:30	79.0	79.0	80.8	61	64.4	2	6	248	0.00	29.637 
03:35	78.8	78.8	80.6	62	64.7	2	10	248	0.00	29.637 
03:40	78.6	78.6	80.4	62	64.5	1	5	248	0.00	29.636 
03:45	78.6	78.6	80.4	62	64.5	2	6	248	0.00	29.640 
03:50	78.5	78.5	80.3	62	64.4	2	6	270	0.00	29.639 
03:55	78.5	78.5	80.3	63	64.8	1	4	248	0.00	29.641 
04:00	78.5	78.5	80.3	63	64.8	1	4	248	0.00	29.644 
04:05	78.5	78.5	80.3	63	64.8	2	10	248	0.00	29.648 
04:10	78.3	78.3	80.1	63	64.6	1	4	225	0.00	29.649 
04:15	78.5	78.5	80.3	63	64.8	2	6	248	0.00	29.651 
04:20	78.5	78.5	80.3	63	64.8	2	6	270	0.00	29.653 
04:25	78.5	78.5	80.3	63	64.8	3	9	270	0.00	29.654 
04:30	78.5	78.5	80.3	63	64.8	2	6	270	0.00	29.650 
04:35	78.3	78.3	80.2	64	65.1	2	6	270	0.00	29.647 
04:40	78.1	78.1	79.9	64	64.9	2	7	270	0.00	29.643 
04:45	78.1	78.1	79.9	64	64.9	2	7	248	0.00	29.646 
04:50	78.1	78.1	80.0	65	65.4	2	4	270	0.00	29.651 
04:55	77.9	77.9	79.7	65	65.2	1	5	248	0.00	29.655 
05:00	77.9	77.9	79.7	65	65.2	1	3	270	0.00	29.656 
05:05	78.1	78.1	80.0	65	65.4	2	7	270	0.00	29.659 
05:10	77.9	77.9	79.7	65	65.2	2	6	248	0.00	29.661 
05:15	77.9	77.9	79.7	65	65.2	2	5	248	0.00	29.658 
05:20	77.7	77.7	79.6	66	65.4	2	4	248	0.00	29.660 
05:25	77.7	77.7	79.6	66	65.4	2	6	270	0.00	29.660 
05:30	77.7	77.7	79.6	66	65.4	2	4	270	0.00	29.664 
05:35	77.7	77.7	79.6	66	65.4	1	4	292	0.00	29.661 
05:40	77.7	77.7	79.6	67	65.8	2	7	270	0.00	29.657 
05:45	77.6	77.6	79.5	67	65.8	1	4	270	0.00	29.659 
05:50	77.6	77.6	79.5	67	65.8	2	7	270	0.00	29.660 
05:55	77.7	77.7	79.6	67	65.8	2	5	248	0.00	29.658 
06:00	77.7	77.7	79.6	67	65.8	2	7	270	0.00	29.661 
06:05	77.7	77.7	79.6	68	66.3	2	5	270	0.00	29.662 
06:10	77.7	77.7	79.6	68	66.3	1	5	248	0.00	29.664 
06:15	77.7	77.7	79.6	68	66.3	2	5	248	0.00	29.663 
06:20	78.1	78.1	80.1	68	66.7	2	6	248	0.00	29.663 
06:25	78.3	78.3	80.3	68	66.8	2	5	270	0.00	29.661 
06:30	78.3	78.3	80.3	68	66.8	2	5	248	0.00	29.661 
06:35	78.5	78.5	80.6	68	67.0	2	8	248	0.00	29.658 
06:40	78.8	78.8	80.9	67	66.9	2	5	248	0.00	29.658 
06:45	78.8	78.8	80.9	67	66.9	2	6	248	0.00	29.659 
06:50	78.8	78.8	81.0	68	67.3	2	5	248	0.00	29.662 
06:55	78.8	78.8	81.0	68	67.3	2	7	248	0.00	29.660 
07:00	79.0	79.0	81.3	68	67.5	2	5	270	0.00	29.663 
07:05	79.2	79.2	81.5	68	67.7	2	6	248	0.00	29.663 
07:10	79.6	79.6	82.0	67	67.7	3	7	248	0.00	29.665 
07:15	79.8	79.8	82.3	67	67.8	3	6	270	0.00	29.672 
07:20	79.8	79.8	82.3	67	67.8	2	6	270	0.00	29.670 
07:25	79.9	79.9	82.5	67	67.9	4	9	270	0.00	29.669 
07:30	79.9	79.9	82.6	68	68.4	2	7	248	0.00	29.674 
07:35	79.6	79.6	82.1	68	68.1	4	14	270	0.00	29.674 
07:40	79.8	79.8	82.4	68	68.3	2	6	270	0.00	29.675 
07:45	80.1	80.1	82.9	68	68.6	4	15	270	0.00	29.675 
07:50	80.7	80.7	83.5	66	68.3	4	7	270	0.00	29.672 
07:55	80.9	80.9	83.8	66	68.4	4	9	270	0.00	29.673 
08:00	81.2	81.2	84.3	66	68.7	3	10	270	0.00	29.672 
08:05	81.6	81.6	84.7	65	68.7	4	9	270	0.00	29.673 
08:10	81.6	81.6	84.7	65	68.7	3	11	248	0.00	29.672 
08:15	82.0	82.0	85.6	66	69.5	4	10	248	0.00	29.673 
08:20	82.2	82.2	85.7	65	69.2	4	10	248	0.00	29.673 
08:25	82.2	82.2	85.5	64	68.8	5	12	270	0.00	29.675 
08:30	82.6	82.6	85.9	63	68.7	4	9	248	0.00	29.673 
08:35	82.8	82.8	86.3	63	68.9	3	10	248	0.00	29.673 
08:40	82.8	82.8	86.1	62	68.4	4	9	270	0.00	29.675 
08:45	83.0	83.0	86.6	63	69.1	3	10	270	0.00	29.673 
08:50	83.2	83.2	86.9	63	69.3	3	6	270	0.00	29.673 
08:55	83.0	83.0	86.6	63	69.1	3	7	270	0.00	29.675 
09:00	82.8	82.8	85.8	61	67.9	4	10	270	0.00	29.676 
09:05	83.0	83.0	86.4	62	68.6	4	9	270	0.00	29.676 
09:10	83.4	83.4	87.0	62	69.0	4	12	248	0.00	29.675 
09:15	83.6	83.6	87.1	61	68.7	4	10	270	0.00	29.676 
09:20	84.0	84.0	88.1	62	69.5	3	11	270	0.00	29.680 
09:25	84.1	84.1	88.0	61	69.2	4	9	270	0.00	29.685 
09:30	84.0	84.0	88.1	62	69.5	3	7	248	0.00	29.682 
09:35	84.1	84.1	88.0	61	69.2	4	10	270	0.00	29.688 
09:40	83.8	83.8	87.5	61	68.9	4	12	270	0.00	29.689 
09:45	83.6	83.6	87.1	61	68.7	3	9	270	0.00	29.689 
09:50	83.4	83.4	87.3	63	69.5	4	9	248	0.00	29.692 
09:55	83.6	83.6	87.6	63	69.6	4	13	270	0.00	29.692 
10:00	83.6	83.6	87.6	63	69.6	4	11	248	0.00	29.692 
10:05	83.6	83.6	87.6	63	69.6	4	7	270	0.00	29.688 
10:10	83.8	83.8	88.0	63	69.8	4	7	270	0.00	29.689 
10:15	83.8	83.8	88.3	64	70.3	5	12	270	0.00	29.687 
10:20	83.4	83.4	87.3	63	69.5	4	11	270	0.00	29.687 
10:25	83.4	83.4	87.6	64	69.9	4	8	248	0.00	29.689 
10:30	83.4	83.4	87.6	64	69.9	4	10	270	0.00	29.689 
10:35	83.6	83.6	87.9	64	70.1	3	7	270	0.00	29.688 
10:40	83.8	83.8	88.0	63	69.8	3	10	248	0.00	29.691 
10:45	83.4	83.4	87.6	64	69.9	3	7	270	0.00	29.691 
10:50	83.2	83.2	86.9	63	69.3	4	7	270	0.00	29.694 
10:55	83.0	83.0	87.1	65	70.0	3	10	270	0.00	29.691 
11:00	83.0	83.0	87.1	65	70.0	3	7	270	0.00	29.692 
11:05	83.0	83.0	87.1	65	70.0	3	9	248	0.00	29.693 
11:10	82.6	82.6	86.4	65	69.6	3	6	270	0.00	29.696 
11:15	81.8	81.8	85.7	68	70.2	4	11	270	0.00	29.698 
11:20	80.3	80.3	83.7	72	70.4	3	7	270	0.01	29.706 
11:25	79.0	79.0	81.9	76	70.8	2	5	248	0.00	29.702 
11:30	79.2	79.2	82.2	76	71.0	2	5	270	0.00	29.706 
11:35	79.8	79.8	83.3	76	71.5	2	5	270	0.00	29.702 
11:40	80.5	80.5	84.4	74	71.4	2	6	270	0.00	29.697 
11:45	81.2	81.2	85.3	72	71.3	2	6	270	0.00	29.700 
11:50	82.0	82.0	86.2	69	70.8	3	7	270	0.00	29.695 
11:55	82.6	82.6	86.9	67	70.5	3	5	248	0.00	29.693 
12:00	82.8	82.8	87.2	67	70.7	3	6	270	0.00	29.690 
12:05	83.2	83.2	87.5	65	70.2	2	6	248	0.00	29.692 
12:10	83.2	83.2	87.5	65	70.2	3	11	270	0.00	29.693 
12:15	83.0	83.0	86.9	64	69.5	5	10	270	0.00	29.701 
12:20	82.2	82.2	84.9	61	67.4	4	7	270	0.00	29.722 
12:25	79.4	79.4	81.2	61	64.8	4	10	270	0.00	29.722 
12:30	78.1	78.1	79.5	55	60.6	4	9	270	0.00	29.718 
12:35	76.7	76.7	78.5	53	58.3	6	14	270	0.00	29.714 
12:40	75.1	75.1	77.7	50	55.2	5	13	270	0.00	29.724 
12:45	73.7	73.7	73.7	55	56.5	5	15	270	0.00	29.731 
12:50	72.8	72.8	72.8	62	59.0	3	9	248	0.00	29.740 
12:55	72.5	72.5	72.5	63	59.2	2	5	248	0.00	29.742 
13:00	72.7	72.7	72.7	65	60.2	2	5	248	0.00	29.743 
13:05	73.3	73.3	73.3	68	62.1	1	3	248	0.00	29.735 
13:10	73.9	73.9	73.9	68	62.7	1	3	248	0.00	29.735 
13:15	74.6	74.6	74.6	68	63.3	1	4	248	0.00	29.732 
13:20	76.5	76.5	78.2	70	66.0	2	4	248	0.00	29.739 
13:25	77.9	77.9	79.8	68	66.5	2	4	248	0.00	29.736 
13:30	78.8	78.8	81.1	69	67.7	2	4	270	0.00	29.735 
13:35	79.0	79.0	81.1	66	66.6	2	6	315	0.00	29.734 
13:40	79.4	79.4	81.8	68	67.9	4	6	270	0.00	29.737 
13:45	79.9	79.9	82.3	66	67.5	3	5	270	0.00	29.735 
13:50	80.5	80.5	83.1	65	67.6	3	7	270	0.00	29.734 
13:55	81.2	81.2	84.0	64	67.8	3	9	270	0.00	29.730 
14:00	81.4	81.4	83.9	62	67.1	4	11	315	0.00	29.739 
14:05	81.6	81.6	84.0	61	66.8	4	11	270	0.00	29.739 
14:10	82.2	82.2	84.5	59	66.4	5	9	270	0.00	29.740 
14:15	82.6	82.6	84.9	58	66.3	4	10	270	0.00	29.743 
14:20	82.2	82.2	84.3	58	65.9	4	8	270	0.00	29.746 
14:25	81.8	81.8	83.5	56	64.5	5	12	270	0.00	29.749 
14:30	81.8	81.8	83.8	58	65.6	4	7	270	0.00	29.754 
14:35	81.8	81.8	83.3	55	64.0	3	10	315	0.00	29.755 
14:40	81.8	81.8	82.6	50	61.3	4	7	292	0.00	29.756 
14:45	81.6	81.6	81.8	46	58.8	6	11	270	0.00	29.757 
14:50	81.8	81.8	82.1	47	59.6	4	9	270	0.00	29.759 
14:55	82.2	82.2	82.5	47	59.9	4	7	270	0.00	29.761 
15:00	82.4	82.4	82.5	45	58.9	5	12	270	0.00	29.758 
15:05	82.6	82.6	81.7	38	54.4	5	9	270	0.00	29.759 
15:10	82.6	82.6	81.6	37	53.7	5	10	270	0.00	29.759 
15:15	82.4	82.4	81.6	38	54.2	4	7	270	0.00	29.758 
15:20	82.6	82.6	82.4	43	57.8	3	7	270	0.00	29.758 
15:25	82.2	82.2	81.9	42	56.8	3	10	270	0.00	29.759 
15:30	81.8	81.8	81.5	42	56.4	4	8	270	0.00	29.761 
15:35	81.4	81.4	81.6	46	58.6	3	8	315	0.00	29.765 
15:40	80.9	80.9	81.5	49	59.9	3	6	315	0.00	29.769 
15:45	80.5	80.5	81.0	48	59.0	3	6	315	0.00	29.771 
15:50	79.8	79.8	80.5	48	58.3	3	6	315	0.00	29.776 
15:55	79.2	79.2	80.2	51	59.5	2	7	292	0.00	29.777 
16:00	79.4	79.4	80.4	51	59.7	2	5	292	0.00	29.779 
16:05	79.0	79.0	80.0	50	58.7	3	14	292	0.00	29.791 
16:10	78.3	78.3	79.6	53	59.7	3	10	315	0.00	29.792 
16:15	77.7	77.7	79.1	52	58.6	2	9	270	0.00	29.798 
16:20	77.0	77.0	78.7	53	58.5	3	11	292	0.00	29.806 
16:25	76.1	76.1	78.1	54	58.2	4	7	315	0.00	29.807 
16:30	75.8	75.8	78.0	55	58.5	3	6	292	0.00	29.809 
16:35	75.6	75.6	77.9	54	57.8	3	6	292	0.00	29.810 
16:40	75.6	75.6	77.8	55	58.3	2	5	292	0.00	29.813 
16:45	74.9	74.9	74.9	54	57.1	2	9	292	0.00	29.818 
16:50	74.7	74.7	74.7	55	57.4	2	5	315	0.00	29.818 
16:55	74.6	74.6	74.6	54	56.8	2	7	0	0.00	29.818 
17:00	74.4	74.4	74.4	56	57.7	2	8	315	0.00	29.816 
17:05	74.4	74.4	74.4	55	57.2	3	7	315	0.00	29.826 
17:10	74.4	74.4	74.4	56	57.7	2	5	292	0.00	29.828 
17:15	73.7	73.7	73.7	55	56.5	2	6	338	0.00	29.831 
17:20	73.2	73.2	73.2	54	55.5	2	4	338	0.00	29.837 
17:25	73.5	73.5	73.5	52	54.8	2	5	270	0.00	29.837 
17:30	73.2	73.2	73.2	54	55.5	2	5	315	0.00	29.843 
17:35	73.0	73.0	73.0	54	55.4	1	3	315	0.00	29.844 
17:40	72.8	72.8	72.8	52	54.1	2	5	315	0.00	29.844 
17:45	73.2	73.2	73.2	53	55.0	1	4	315	0.00	29.848 
17:50	73.0	73.0	73.0	51	53.8	2	6	292	0.00	29.851 
17:55	72.5	72.5	72.5	51	53.3	2	6	292	0.00	29.854 
18:00	72.0	72.0	72.0	50	52.3	3	7	315	0.00	29.858 
18:05	71.6	71.6	71.6	52	53.0	2	6	338	0.00	29.860 
18:10	71.8	71.8	71.8	51	52.7	1	5	292	0.00	29.865 
18:15	71.5	71.5	71.5	54	54.0	1	3	338	0.00	29.872 
18:20	71.5	71.5	71.5	52	52.9	1	4	292	0.00	29.874 
18:25	71.3	71.3	71.3	51	52.2	1	4	338	0.00	29.876 
18:30	71.1	71.1	71.1	51	52.0	2	6	292	0.00	29.879 
18:35	71.1	71.1	71.1	52	52.6	1	5	315	0.00	29.883 
18:40	70.9	70.9	70.9	50	51.3	2	5	315	0.00	29.887 
18:45	70.8	70.8	70.8	50	51.2	3	7	315	0.00	29.892 
18:50	70.6	70.6	70.6	50	51.0	2	5	270	0.00	29.895 
18:55	70.3	70.3	70.3	52	51.8	1	6	315	0.00	29.898 
19:00	69.9	69.9	69.9	52	51.5	1	3	292	0.00	29.902 
19:05	69.8	69.8	69.8	52	51.4	1	4	292	0.00	29.905 
19:10	69.4	69.4	69.4	52	51.0	2	4	315	0.00	29.909 
19:15	68.9	68.9	68.9	52	50.5	2	7	315	0.00	29.910 
19:20	68.6	68.6	68.6	54	51.3	2	6	292	0.00	29.915 
19:25	68.3	68.3	68.3	53	50.5	1	4	292	0.00	29.925 
19:30	67.9	67.9	67.9	53	50.1	1	4	292	0.00	29.926 
19:35	67.8	67.8	67.8	53	50.0	1	4	270	0.00	29.929 
19:40	67.4	67.4	67.4	53	49.7	1	4	270	0.00	29.931 
19:45	67.1	67.1	67.1	53	49.4	2	3	292	0.00	29.936 
19:50	66.9	66.9	66.9	55	50.2	1	4	270	0.00	29.938 
19:55	66.6	66.6	66.6	55	49.9	1	3	292	0.00	29.941 
20:00	66.3	66.3	66.3	57	50.6	0	1	270	0.00	29.942 
20:05	66.1	66.1	66.1	55	49.5	1	3	270	0.00	29.942 
20:10	65.8	65.8	65.8	57	50.1	0	5	292	0.00	29.946 
20:15	65.6	65.6	65.6	56	49.5	0	3	292	0.00	29.951 
20:20	65.3	65.3	65.3	56	49.2	0	1	270	0.00	29.955 
20:25	65.0	65.0	65.0	57	49.4	0	1	270	0.00	29.956 
20:30	64.7	64.7	64.7	58	49.6	0	1	270	0.00	29.956 
20:35	64.3	64.3	64.3	58	49.2	0	1	270	0.00	29.958 
20:40	63.9	63.9	63.9	59	49.3	0	1	270	0.00	29.960 
20:45	63.7	63.7	63.7	58	48.6	0	1	270	0.00	29.964 
20:50	63.5	63.5	63.5	59	48.9	0	1	270	0.00	29.966 
20:55	63.4	63.4	63.4	58	48.4	0	1	270	0.00	29.969 
21:00	63.2	63.2	63.2	59	48.6	0	1	270	0.00	29.973 
21:05	62.9	62.9	62.9	59	48.3	0	0	---	0.00	29.974 
21:10	62.7	62.7	62.7	59	48.2	0	0	---	0.00	29.975 
21:15	62.4	62.4	62.4	60	48.3	0	0	---	0.00	29.975 
21:20	62.1	62.1	62.1	60	48.0	0	0	---	0.00	29.976 
21:25	61.6	61.6	61.6	61	48.0	0	0	---	0.00	29.976 
21:30	61.3	61.3	61.3	62	48.2	0	0	---	0.00	29.979 
21:35	60.9	60.9	60.9	63	48.2	0	0	---	0.00	29.980 
21:40	60.5	60.5	60.5	63	47.8	0	0	---	0.00	29.985 
21:45	60.2	60.2	60.2	64	48.0	0	0	---	0.00	29.990 
21:50	59.9	59.9	59.9	65	48.1	0	0	---	0.00	29.990 
21:55	59.8	59.8	59.8	65	48.0	0	0	---	0.00	29.991 
22:00	59.5	59.5	59.5	66	48.1	0	0	---	0.00	29.992 
22:05	59.2	59.2	59.2	67	48.2	0	0	---	0.00	29.995 
22:10	58.9	58.9	58.9	67	48.0	0	0	---	0.00	29.996 
22:15	58.7	58.7	58.7	66	47.4	0	0	---	0.00	30.000 
22:20	58.9	58.9	58.9	67	48.0	0	1	270	0.00	30.003 
22:25	58.7	58.7	58.7	66	47.4	0	0	---	0.00	30.003 
22:30	58.9	58.9	58.9	66	47.6	0	0	---	0.00	30.000 
22:35	58.7	58.7	58.7	66	47.4	0	0	---	0.00	30.006 
22:40	58.6	58.6	58.6	66	47.3	0	0	---	0.00	30.008 
22:45	58.6	58.6	58.6	66	47.3	0	1	270	0.00	30.010 
22:50	58.4	58.4	58.4	66	47.1	0	0	---	0.00	30.013 
22:55	58.1	58.1	58.1	67	47.2	0	0	---	0.00	30.013 
23:00	57.8	57.8	57.8	67	46.9	0	0	---	0.00	30.014 
23:05	57.5	57.5	57.5	67	46.6	0	0	---	0.00	30.014 
23:10	57.0	57.0	57.0	68	46.5	0	0	---	0.00	30.015 
23:15	56.7	56.7	56.7	69	46.6	0	0	---	0.00	30.018 
23:20	56.3	56.3	56.3	70	46.6	0	0	---	0.00	30.019 
23:25	56.0	56.0	56.0	73	47.5	0	0	---	0.00	30.024 
23:30	55.6	55.6	55.6	74	47.4	0	0	---	0.00	30.025 
23:35	55.1	55.1	55.1	75	47.3	0	0	---	0.00	30.026 
23:40	54.7	54.7	54.7	75	46.9	0	0	---	0.00	30.025 
23:45	54.4	54.4	54.4	77	47.3	0	0	---	0.00	30.028 
23:50	53.9	53.9	53.9	77	46.9	0	0	---	0.00	30.027 
23:55	53.6	53.6	53.6	79	47.2	0	0	---	0.00	30.029 

CoCoRaHS
IN-AL-39
A2 Web Hosting
Creative Commons License
GoDaddy
Look for:

loaded 2017-10-16 18:25:28 • last modified 2010-11-18 10:43:29
Privacy PolicyDisclaimer
• wx.awcolley.com is powered by PmWiki v.2002016 •
• all content (unless otherwise noted) © 2017 A W Colley